sensor_id;sensor_type;location;lat;lon;timestamp;temperature;humidity
79301;SHT31;68755;51.984;5.646;2023-06-10T00:00:52;24.7;42.9
79301;SHT31;68755;51.984;5.646;2023-06-10T00:03:23;24.7;43.0
79301;SHT31;68755;51.984;5.646;2023-06-10T00:05:55;24.6;43.1
79301;SHT31;68755;51.984;5.646;2023-06-10T00:08:25;24.6;43.2
79301;SHT31;68755;51.984;5.646;2023-06-10T00:11:01;24.5;43.2
79301;SHT31;68755;51.984;5.646;2023-06-10T00:13:30;24.5;43.3
79301;SHT31;68755;51.984;5.646;2023-06-10T00:16:00;24.4;43.4
79301;SHT31;68755;51.984;5.646;2023-06-10T00:18:30;24.4;43.4
79301;SHT31;68755;51.984;5.646;2023-06-10T00:21:02;24.3;43.5
79301;SHT31;68755;51.984;5.646;2023-06-10T00:23:33;24.3;43.6
79301;SHT31;68755;51.984;5.646;2023-06-10T00:26:05;24.3;43.7
79301;SHT31;68755;51.984;5.646;2023-06-10T00:28:38;24.2;43.7
79301;SHT31;68755;51.984;5.646;2023-06-10T00:31:07;24.2;43.6
79301;SHT31;68755;51.984;5.646;2023-06-10T00:33:37;24.1;43.5
79301;SHT31;68755;51.984;5.646;2023-06-10T00:36:08;24.1;43.5
79301;SHT31;68755;51.984;5.646;2023-06-10T00:38:37;24.0;43.4
79301;SHT31;68755;51.984;5.646;2023-06-10T00:41:08;24.0;43.4
79301;SHT31;68755;51.984;5.646;2023-06-10T00:43:38;24.0;43.5
79301;SHT31;68755;51.984;5.646;2023-06-10T00:46:10;23.9;43.5
79301;SHT31;68755;51.984;5.646;2023-06-10T00:48:42;23.9;43.3
79301;SHT31;68755;51.984;5.646;2023-06-10T00:51:13;23.9;43.2
79301;SHT31;68755;51.984;5.646;2023-06-10T00:53:44;23.8;43.1
79301;SHT31;68755;51.984;5.646;2023-06-10T00:56:17;23.8;42.9
79301;SHT31;68755;51.984;5.646;2023-06-10T00:58:49;23.8;43.0
79301;SHT31;68755;51.984;5.646;2023-06-10T01:01:20;23.7;42.7
79301;SHT31;68755;51.984;5.646;2023-06-10T01:03:49;23.7;42.6
79301;SHT31;68755;51.984;5.646;2023-06-10T01:06:27;23.7;42.8
79301;SHT31;68755;51.984;5.646;2023-06-10T01:09:06;23.6;42.7
79301;SHT31;68755;51.984;5.646;2023-06-10T01:11:43;23.6;42.5
79301;SHT31;68755;51.984;5.646;2023-06-10T01:14:14;23.6;42.6
79301;SHT31;68755;51.984;5.646;2023-06-10T01:16:45;23.6;42.4
79301;SHT31;68755;51.984;5.646;2023-06-10T01:19:18;23.5;42.4
79301;SHT31;68755;51.984;5.646;2023-06-10T01:21:51;23.5;42.4
79301;SHT31;68755;51.984;5.646;2023-06-10T01:24:25;23.5;42.4
79301;SHT31;68755;51.984;5.646;2023-06-10T01:27:01;23.5;42.4
79301;SHT31;68755;51.984;5.646;2023-06-10T01:29:37;23.4;42.3
79301;SHT31;68755;51.984;5.646;2023-06-10T01:32:18;23.4;42.3
79301;SHT31;68755;51.984;5.646;2023-06-10T01:34:49;23.4;42.2
79301;SHT31;68755;51.984;5.646;2023-06-10T01:37:24;23.4;42.3
79301;SHT31;68755;51.984;5.646;2023-06-10T01:39:58;23.4;42.2
79301;SHT31;68755;51.984;5.646;2023-06-10T01:42:30;23.4;42.1
79301;SHT31;68755;51.984;5.646;2023-06-10T01:45:00;23.4;42.2
79301;SHT31;68755;51.984;5.646;2023-06-10T01:47:32;23.4;42.2
79301;SHT31;68755;51.984;5.646;2023-06-10T01:50:02;23.3;42.1
79301;SHT31;68755;51.984;5.646;2023-06-10T01:52:32;23.3;42.1
79301;SHT31;68755;51.984;5.646;2023-06-10T01:55:02;23.3;42.2
79301;SHT31;68755;51.984;5.646;2023-06-10T01:57:34;23.2;42.2
79301;SHT31;68755;51.984;5.646;2023-06-10T02:00:04;23.2;42.3
79301;SHT31;68755;51.984;5.646;2023-06-10T02:02:35;23.1;42.3
79301;SHT31;68755;51.984;5.646;2023-06-10T02:05:05;23.1;42.4
79301;SHT31;68755;51.984;5.646;2023-06-10T02:07:36;23.1;42.4
79301;SHT31;68755;51.984;5.646;2023-06-10T02:10:07;23.0;42.7
79301;SHT31;68755;51.984;5.646;2023-06-10T02:12:39;23.0;42.6
79301;SHT31;68755;51.984;5.646;2023-06-10T02:15:09;23.0;42.7
79301;SHT31;68755;51.984;5.646;2023-06-10T02:17:39;23.0;42.8
79301;SHT31;68755;51.984;5.646;2023-06-10T02:20:09;22.9;42.8
79301;SHT31;68755;51.984;5.646;2023-06-10T02:22:41;22.9;42.9
79301;SHT31;68755;51.984;5.646;2023-06-10T02:25:11;22.9;43.1
79301;SHT31;68755;51.984;5.646;2023-06-10T02:27:41;22.8;43.1
79301;SHT31;68755;51.984;5.646;2023-06-10T02:30:11;22.8;43.2
79301;SHT31;68755;51.984;5.646;2023-06-10T02:32:42;22.8;43.5
79301;SHT31;68755;51.984;5.646;2023-06-10T02:35:15;22.7;43.6
79301;SHT31;68755;51.984;5.646;2023-06-10T02:37:45;22.7;43.7
79301;SHT31;68755;51.984;5.646;2023-06-10T02:40:17;22.7;43.9
79301;SHT31;68755;51.984;5.646;2023-06-10T02:42:46;22.6;44.1
79301;SHT31;68755;51.984;5.646;2023-06-10T02:45:16;22.6;44.2
79301;SHT31;68755;51.984;5.646;2023-06-10T02:47:46;22.6;44.4
79301;SHT31;68755;51.984;5.646;2023-06-10T02:50:16;22.5;44.5
79301;SHT31;68755;51.984;5.646;2023-06-10T02:52:45;22.5;44.7
79301;SHT31;68755;51.984;5.646;2023-06-10T02:55:15;22.5;44.7
79301;SHT31;68755;51.984;5.646;2023-06-10T02:57:47;22.5;45.0
79301;SHT31;68755;51.984;5.646;2023-06-10T03:00:20;22.4;45.0
79301;SHT31;68755;51.984;5.646;2023-06-10T03:02:49;22.4;45.1
79301;SHT31;68755;51.984;5.646;2023-06-10T03:05:22;22.4;45.3
79301;SHT31;68755;51.984;5.646;2023-06-10T03:07:52;22.4;45.5
79301;SHT31;68755;51.984;5.646;2023-06-10T03:10:22;22.4;45.5
79301;SHT31;68755;51.984;5.646;2023-06-10T03:12:53;22.4;45.7
79301;SHT31;68755;51.984;5.646;2023-06-10T03:15:22;22.3;45.8
79301;SHT31;68755;51.984;5.646;2023-06-10T03:17:53;22.3;45.9
79301;SHT31;68755;51.984;5.646;2023-06-10T03:20:22;22.3;46.0
79301;SHT31;68755;51.984;5.646;2023-06-10T03:22:53;22.3;46.0
79301;SHT31;68755;51.984;5.646;2023-06-10T03:25:23;22.2;46.1
79301;SHT31;68755;51.984;5.646;2023-06-10T03:27:55;22.2;46.2
79301;SHT31;68755;51.984;5.646;2023-06-10T03:30:26;22.2;46.3
79301;SHT31;68755;51.984;5.646;2023-06-10T03:32:56;22.2;46.2
79301;SHT31;68755;51.984;5.646;2023-06-10T03:35:26;22.1;46.4
79301;SHT31;68755;51.984;5.646;2023-06-10T03:37:58;22.1;46.4
79301;SHT31;68755;51.984;5.646;2023-06-10T03:40:28;22.1;46.6
79301;SHT31;68755;51.984;5.646;2023-06-10T03:43:00;22.1;46.7
79301;SHT31;68755;51.984;5.646;2023-06-10T03:45:30;22.0;46.8
79301;SHT31;68755;51.984;5.646;2023-06-10T03:48:01;22.0;47.0
79301;SHT31;68755;51.984;5.646;2023-06-10T03:50:31;22.0;47.0
79301;SHT31;68755;51.984;5.646;2023-06-10T03:53:01;21.9;47.2
79301;SHT31;68755;51.984;5.646;2023-06-10T03:55:30;21.9;47.4
79301;SHT31;68755;51.984;5.646;2023-06-10T03:58:00;21.8;47.6
79301;SHT31;68755;51.984;5.646;2023-06-10T04:00:30;21.8;47.7
79301;SHT31;68755;51.984;5.646;2023-06-10T04:03:00;21.7;47.9
79301;SHT31;68755;51.984;5.646;2023-06-10T04:05:30;21.7;48.1
79301;SHT31;68755;51.984;5.646;2023-06-10T04:08:00;21.6;48.2
79301;SHT31;68755;51.984;5.646;2023-06-10T04:10:30;21.6;48.5
79301;SHT31;68755;51.984;5.646;2023-06-10T04:13:03;21.5;48.7
79301;SHT31;68755;51.984;5.646;2023-06-10T04:15:32;21.5;48.8
79301;SHT31;68755;51.984;5.646;2023-06-10T04:18:02;21.4;49.0
79301;SHT31;68755;51.984;5.646;2023-06-10T04:20:32;21.4;49.2
79301;SHT31;68755;51.984;5.646;2023-06-10T04:23:02;21.4;49.3
79301;SHT31;68755;51.984;5.646;2023-06-10T04:25:31;21.3;49.6
79301;SHT31;68755;51.984;5.646;2023-06-10T04:28:01;21.3;49.5
79301;SHT31;68755;51.984;5.646;2023-06-10T04:30:31;21.3;49.8
79301;SHT31;68755;51.984;5.646;2023-06-10T04:33:01;21.3;49.9
79301;SHT31;68755;51.984;5.646;2023-06-10T04:35:30;21.3;50.2
79301;SHT31;68755;51.984;5.646;2023-06-10T04:38:00;21.2;50.4
79301;SHT31;68755;51.984;5.646;2023-06-10T04:40:30;21.2;50.3
79301;SHT31;68755;51.984;5.646;2023-06-10T04:43:00;21.2;50.5
79301;SHT31;68755;51.984;5.646;2023-06-10T04:45:30;21.2;50.5
79301;SHT31;68755;51.984;5.646;2023-06-10T04:47:59;21.2;50.3
79301;SHT31;68755;51.984;5.646;2023-06-10T04:50:29;21.2;50.6
79301;SHT31;68755;51.984;5.646;2023-06-10T04:53:00;21.2;50.6
79301;SHT31;68755;51.984;5.646;2023-06-10T04:55:30;21.2;50.7
79301;SHT31;68755;51.984;5.646;2023-06-10T04:58:00;21.2;50.7
79301;SHT31;68755;51.984;5.646;2023-06-10T05:00:30;21.2;50.6
79301;SHT31;68755;51.984;5.646;2023-06-10T05:02:59;21.2;51.0
79301;SHT31;68755;51.984;5.646;2023-06-10T05:05:29;21.2;50.8
79301;SHT31;68755;51.984;5.646;2023-06-10T05:07:59;21.2;50.9
79301;SHT31;68755;51.984;5.646;2023-06-10T05:10:29;21.2;51.1
79301;SHT31;68755;51.984;5.646;2023-06-10T05:12:59;21.2;51.1
79301;SHT31;68755;51.984;5.646;2023-06-10T05:15:32;21.2;51.4
79301;SHT31;68755;51.984;5.646;2023-06-10T05:18:03;21.3;51.6
79301;SHT31;68755;51.984;5.646;2023-06-10T05:20:33;21.3;51.3
79301;SHT31;68755;51.984;5.646;2023-06-10T05:23:02;21.3;51.2
79301;SHT31;68755;51.984;5.646;2023-06-10T05:25:33;21.3;51.5
79301;SHT31;68755;51.984;5.646;2023-06-10T05:28:04;21.4;51.3
79301;SHT31;68755;51.984;5.646;2023-06-10T05:30:37;21.5;51.0
79301;SHT31;68755;51.984;5.646;2023-06-10T05:33:07;21.5;50.7
79301;SHT31;68755;51.984;5.646;2023-06-10T05:35:37;21.6;50.7
79301;SHT31;68755;51.984;5.646;2023-06-10T05:38:07;21.6;50.8
79301;SHT31;68755;51.984;5.646;2023-06-10T05:40:38;21.6;51.0
79301;SHT31;68755;51.984;5.646;2023-06-10T05:43:08;21.6;51.1
79301;SHT31;68755;51.984;5.646;2023-06-10T05:45:39;21.6;51.3
79301;SHT31;68755;51.984;5.646;2023-06-10T05:48:08;21.7;50.6
79301;SHT31;68755;51.984;5.646;2023-06-10T05:50:39;21.7;50.8
79301;SHT31;68755;51.984;5.646;2023-06-10T05:53:10;21.7;51.2
79301;SHT31;68755;51.984;5.646;2023-06-10T05:55:42;21.7;51.3
79301;SHT31;68755;51.984;5.646;2023-06-10T05:58:13;21.7;51.9
79301;SHT31;68755;51.984;5.646;2023-06-10T06:00:43;21.8;51.5
79301;SHT31;68755;51.984;5.646;2023-06-10T06:03:13;21.8;51.9
79301;SHT31;68755;51.984;5.646;2023-06-10T06:05:45;21.8;51.6
79301;SHT31;68755;51.984;5.646;2023-06-10T06:08:14;21.8;51.8
79301;SHT31;68755;51.984;5.646;2023-06-10T06:10:46;21.9;51.2
79301;SHT31;68755;51.984;5.646;2023-06-10T06:13:16;21.9;51.5
79301;SHT31;68755;51.984;5.646;2023-06-10T06:15:45;21.9;51.3
79301;SHT31;68755;51.984;5.646;2023-06-10T06:18:15;22.0;50.9
79301;SHT31;68755;51.984;5.646;2023-06-10T06:20:46;22.0;51.3
79301;SHT31;68755;51.984;5.646;2023-06-10T06:23:15;22.0;51.2
79301;SHT31;68755;51.984;5.646;2023-06-10T06:25:45;22.0;51.3
79301;SHT31;68755;51.984;5.646;2023-06-10T06:28:17;22.1;51.0
79301;SHT31;68755;51.984;5.646;2023-06-10T06:30:48;22.1;50.5
79301;SHT31;68755;51.984;5.646;2023-06-10T06:33:18;22.1;49.8
79301;SHT31;68755;51.984;5.646;2023-06-10T06:35:48;22.2;50.5
79301;SHT31;68755;51.984;5.646;2023-06-10T06:38:18;22.2;51.0
79301;SHT31;68755;51.984;5.646;2023-06-10T06:40:48;22.2;50.4
79301;SHT31;68755;51.984;5.646;2023-06-10T06:43:17;22.3;50.5
79301;SHT31;68755;51.984;5.646;2023-06-10T06:45:47;22.3;50.8
79301;SHT31;68755;51.984;5.646;2023-06-10T06:48:18;22.4;50.4
79301;SHT31;68755;51.984;5.646;2023-06-10T06:50:48;22.4;50.2
79301;SHT31;68755;51.984;5.646;2023-06-10T06:53:18;22.5;50.8
79301;SHT31;68755;51.984;5.646;2023-06-10T06:55:47;22.5;50.0
79301;SHT31;68755;51.984;5.646;2023-06-10T06:58:17;22.6;50.4
79301;SHT31;68755;51.984;5.646;2023-06-10T07:00:47;22.6;50.4
79301;SHT31;68755;51.984;5.646;2023-06-10T07:03:16;22.7;50.8
79301;SHT31;68755;51.984;5.646;2023-06-10T07:05:46;22.7;50.0
79301;SHT31;68755;51.984;5.646;2023-06-10T07:08:16;22.7;49.9
79301;SHT31;68755;51.984;5.646;2023-06-10T07:10:45;22.8;49.7
79301;SHT31;68755;51.984;5.646;2023-06-10T07:13:16;22.8;49.7
79301;SHT31;68755;51.984;5.646;2023-06-10T07:15:46;22.9;49.9
79301;SHT31;68755;51.984;5.646;2023-06-10T07:18:16;22.9;49.7
79301;SHT31;68755;51.984;5.646;2023-06-10T07:20:46;23.0;48.9
79301;SHT31;68755;51.984;5.646;2023-06-10T07:23:16;23.0;49.0
79301;SHT31;68755;51.984;5.646;2023-06-10T07:25:46;23.0;49.3
79301;SHT31;68755;51.984;5.646;2023-06-10T07:28:16;23.1;48.9
79301;SHT31;68755;51.984;5.646;2023-06-10T07:30:45;23.1;49.1
79301;SHT31;68755;51.984;5.646;2023-06-10T07:33:15;23.1;49.0
79301;SHT31;68755;51.984;5.646;2023-06-10T07:35:45;23.2;48.9
79301;SHT31;68755;51.984;5.646;2023-06-10T07:38:14;23.3;48.4
79301;SHT31;68755;51.984;5.646;2023-06-10T07:40:45;23.3;47.5
79301;SHT31;68755;51.984;5.646;2023-06-10T07:43:15;23.3;48.5
79301;SHT31;68755;51.984;5.646;2023-06-10T07:45:45;23.4;48.3
79301;SHT31;68755;51.984;5.646;2023-06-10T07:48:14;23.5;48.7
79301;SHT31;68755;51.984;5.646;2023-06-10T07:50:44;23.5;47.5
79301;SHT31;68755;51.984;5.646;2023-06-10T07:53:14;23.6;46.9
79301;SHT31;68755;51.984;5.646;2023-06-10T07:55:45;23.7;47.1
79301;SHT31;68755;51.984;5.646;2023-06-10T07:58:15;23.8;47.3
79301;SHT31;68755;51.984;5.646;2023-06-10T08:00:45;23.9;47.4
79301;SHT31;68755;51.984;5.646;2023-06-10T08:03:15;24.0;47.2
79301;SHT31;68755;51.984;5.646;2023-06-10T08:05:47;24.1;46.8
79301;SHT31;68755;51.984;5.646;2023-06-10T08:08:17;24.2;46.4
79301;SHT31;68755;51.984;5.646;2023-06-10T08:10:47;24.4;45.5
79301;SHT31;68755;51.984;5.646;2023-06-10T08:13:19;24.5;44.6
79301;SHT31;68755;51.984;5.646;2023-06-10T08:15:49;24.6;44.7
79301;SHT31;68755;51.984;5.646;2023-06-10T08:18:22;24.8;44.8
79301;SHT31;68755;51.984;5.646;2023-06-10T08:20:52;24.9;45.0
79301;SHT31;68755;51.984;5.646;2023-06-10T08:23:21;25.0;44.0
79301;SHT31;68755;51.984;5.646;2023-06-10T08:25:51;25.1;43.8
79301;SHT31;68755;51.984;5.646;2023-06-10T08:28:21;25.2;43.9
79301;SHT31;68755;51.984;5.646;2023-06-10T08:30:50;25.4;43.2
79301;SHT31;68755;51.984;5.646;2023-06-10T08:33:20;25.5;43.0
79301;SHT31;68755;51.984;5.646;2023-06-10T08:35:50;25.6;42.9
79301;SHT31;68755;51.984;5.646;2023-06-10T08:38:19;25.6;42.2
79301;SHT31;68755;51.984;5.646;2023-06-10T08:40:58;25.7;42.5
79301;SHT31;68755;51.984;5.646;2023-06-10T08:43:33;25.9;42.4
79301;SHT31;68755;51.984;5.646;2023-06-10T08:46:03;26.0;42.0
79301;SHT31;68755;51.984;5.646;2023-06-10T08:48:35;26.1;41.5
79301;SHT31;68755;51.984;5.646;2023-06-10T08:51:06;26.2;40.5
79301;SHT31;68755;51.984;5.646;2023-06-10T08:53:38;26.4;41.1
79301;SHT31;68755;51.984;5.646;2023-06-10T08:56:11;26.5;41.0
79301;SHT31;68755;51.984;5.646;2023-06-10T08:58:42;26.7;39.5
79301;SHT31;68755;51.984;5.646;2023-06-10T09:01:13;26.8;40.4
79301;SHT31;68755;51.984;5.646;2023-06-10T09:03:44;26.9;40.2
79301;SHT31;68755;51.984;5.646;2023-06-10T09:06:13;27.0;41.5
79301;SHT31;68755;51.984;5.646;2023-06-10T09:08:43;27.1;40.2
79301;SHT31;68755;51.984;5.646;2023-06-10T09:11:14;27.2;41.0
79301;SHT31;68755;51.984;5.646;2023-06-10T09:13:44;27.4;39.5
79301;SHT31;68755;51.984;5.646;2023-06-10T09:16:13;27.5;39.4
79301;SHT31;68755;51.984;5.646;2023-06-10T09:18:44;27.6;38.7
79301;SHT31;68755;51.984;5.646;2023-06-10T09:21:13;27.7;39.8
79301;SHT31;68755;51.984;5.646;2023-06-10T09:23:44;27.7;40.0
79301;SHT31;68755;51.984;5.646;2023-06-10T09:26:14;27.8;40.4
79301;SHT31;68755;51.984;5.646;2023-06-10T09:28:48;27.9;40.4
79301;SHT31;68755;51.984;5.646;2023-06-10T09:31:18;28.0;39.3
79301;SHT31;68755;51.984;5.646;2023-06-10T09:33:49;28.0;39.8
79301;SHT31;68755;51.984;5.646;2023-06-10T09:36:23;28.1;39.2
79301;SHT31;68755;51.984;5.646;2023-06-10T09:38:58;28.2;38.6
79301;SHT31;68755;51.984;5.646;2023-06-10T09:41:34;28.2;39.6
79301;SHT31;68755;51.984;5.646;2023-06-10T09:44:13;28.3;38.4
79301;SHT31;68755;51.984;5.646;2023-06-10T09:46:46;28.4;39.3
79301;SHT31;68755;51.984;5.646;2023-06-10T09:49:17;28.4;39.0
79301;SHT31;68755;51.984;5.646;2023-06-10T09:51:54;28.5;38.3
79301;SHT31;68755;51.984;5.646;2023-06-10T09:54:32;28.6;38.9
79301;SHT31;68755;51.984;5.646;2023-06-10T09:57:09;28.6;36.5
79301;SHT31;68755;51.984;5.646;2023-06-10T09:59:39;28.7;37.2
79301;SHT31;68755;51.984;5.646;2023-06-10T10:02:13;28.8;37.8
79301;SHT31;68755;51.984;5.646;2023-06-10T10:04:43;28.9;38.8
79301;SHT31;68755;51.984;5.646;2023-06-10T10:07:13;28.9;36.3
79301;SHT31;68755;51.984;5.646;2023-06-10T10:09:43;29.0;37.1
79301;SHT31;68755;51.984;5.646;2023-06-10T10:12:16;29.1;36.3
79301;SHT31;68755;51.984;5.646;2023-06-10T10:14:47;29.1;35.7
79301;SHT31;68755;51.984;5.646;2023-06-10T10:17:18;29.2;35.4
79301;SHT31;68755;51.984;5.646;2023-06-10T10:19:53;29.2;34.9
79301;SHT31;68755;51.984;5.646;2023-06-10T10:22:31;29.3;36.2
79301;SHT31;68755;51.984;5.646;2023-06-10T10:25:10;29.4;36.2
79301;SHT31;68755;51.984;5.646;2023-06-10T10:27:46;29.4;34.3
79301;SHT31;68755;51.984;5.646;2023-06-10T10:30:20;29.5;34.4
79301;SHT31;68755;51.984;5.646;2023-06-10T10:33:00;29.5;34.1
79301;SHT31;68755;51.984;5.646;2023-06-10T10:35:33;29.6;33.9
79301;SHT31;68755;51.984;5.646;2023-06-10T10:38:07;29.6;33.4
79301;SHT31;68755;51.984;5.646;2023-06-10T10:40:38;29.6;32.7
79301;SHT31;68755;51.984;5.646;2023-06-10T10:43:10;29.7;33.0
79301;SHT31;68755;51.984;5.646;2023-06-10T10:45:42;29.7;33.3
79301;SHT31;68755;51.984;5.646;2023-06-10T10:48:12;29.8;31.5
79301;SHT31;68755;51.984;5.646;2023-06-10T10:50:57;29.8;31.5
79301;SHT31;68755;51.984;5.646;2023-06-10T10:53:27;29.8;31.6
79301;SHT31;68755;51.984;5.646;2023-06-10T10:56:04;29.9;32.3
79301;SHT31;68755;51.984;5.646;2023-06-10T10:58:35;29.9;30.2
79301;SHT31;68755;51.984;5.646;2023-06-10T11:01:14;29.9;29.9
79301;SHT31;68755;51.984;5.646;2023-06-10T11:03:46;30.0;30.5
79301;SHT31;68755;51.984;5.646;2023-06-10T11:06:18;30.0;28.5
79301;SHT31;68755;51.984;5.646;2023-06-10T11:08:49;30.0;29.7
79301;SHT31;68755;51.984;5.646;2023-06-10T11:11:21;30.0;30.4
79301;SHT31;68755;51.984;5.646;2023-06-10T11:14:08;30.1;29.4
79301;SHT31;68755;51.984;5.646;2023-06-10T11:16:41;30.1;29.3
79301;SHT31;68755;51.984;5.646;2023-06-10T11:19:33;30.1;28.9
79301;SHT31;68755;51.984;5.646;2023-06-10T11:22:06;30.1;29.1
79301;SHT31;68755;51.984;5.646;2023-06-10T11:24:37;30.2;29.2
79301;SHT31;68755;51.984;5.646;2023-06-10T11:27:17;30.2;29.2
79301;SHT31;68755;51.984;5.646;2023-06-10T11:30:22;30.2;28.8
79301;SHT31;68755;51.984;5.646;2023-06-10T11:32:55;30.3;29.0
79301;SHT31;68755;51.984;5.646;2023-06-10T11:35:26;30.3;29.5
79301;SHT31;68755;51.984;5.646;2023-06-10T11:37:58;30.3;29.7
79301;SHT31;68755;51.984;5.646;2023-06-10T11:40:29;30.4;29.2
79301;SHT31;68755;51.984;5.646;2023-06-10T11:43:00;30.5;28.7
79301;SHT31;68755;51.984;5.646;2023-06-10T11:45:30;30.5;28.8
79301;SHT31;68755;51.984;5.646;2023-06-10T11:48:00;30.6;28.3
79301;SHT31;68755;51.984;5.646;2023-06-10T11:50:32;30.7;28.0
79301;SHT31;68755;51.984;5.646;2023-06-10T11:53:03;30.7;27.6
79301;SHT31;68755;51.984;5.646;2023-06-10T11:55:45;30.8;27.5
79301;SHT31;68755;51.984;5.646;2023-06-10T11:58:18;30.9;27.3
79301;SHT31;68755;51.984;5.646;2023-06-10T12:00:50;31.0;27.5
79301;SHT31;68755;51.984;5.646;2023-06-10T12:03:21;31.1;27.4
79301;SHT31;68755;51.984;5.646;2023-06-10T12:05:59;31.1;27.7
79301;SHT31;68755;51.984;5.646;2023-06-10T12:08:30;31.1;27.4
79301;SHT31;68755;51.984;5.646;2023-06-10T12:11:01;31.2;27.6
79301;SHT31;68755;51.984;5.646;2023-06-10T12:13:31;31.2;27.2
79301;SHT31;68755;51.984;5.646;2023-06-10T12:16:09;31.2;27.4
79301;SHT31;68755;51.984;5.646;2023-06-10T12:18:39;31.2;27.7
79301;SHT31;68755;51.984;5.646;2023-06-10T12:21:17;31.2;27.5
79301;SHT31;68755;51.984;5.646;2023-06-10T12:24:04;31.2;27.9
79301;SHT31;68755;51.984;5.646;2023-06-10T12:26:40;31.2;27.5
79301;SHT31;68755;51.984;5.646;2023-06-10T12:29:23;31.2;28.4
79301;SHT31;68755;51.984;5.646;2023-06-10T12:31:55;31.3;28.1
79301;SHT31;68755;51.984;5.646;2023-06-10T12:34:37;31.3;28.5
79301;SHT31;68755;51.984;5.646;2023-06-10T12:37:10;31.3;28.1
79301;SHT31;68755;51.984;5.646;2023-06-10T12:39:52;31.4;27.6
79301;SHT31;68755;51.984;5.646;2023-06-10T12:42:25;31.4;28.1
79301;SHT31;68755;51.984;5.646;2023-06-10T12:44:56;31.4;27.6
79301;SHT31;68755;51.984;5.646;2023-06-10T12:47:33;31.5;26.6
79301;SHT31;68755;51.984;5.646;2023-06-10T12:50:04;31.5;27.0
79301;SHT31;68755;51.984;5.646;2023-06-10T12:52:34;31.5;27.0
79301;SHT31;68755;51.984;5.646;2023-06-10T12:55:05;31.5;28.0
79301;SHT31;68755;51.984;5.646;2023-06-10T12:57:35;31.5;26.6
79301;SHT31;68755;51.984;5.646;2023-06-10T13:00:05;31.5;27.6
79301;SHT31;68755;51.984;5.646;2023-06-10T13:02:37;31.5;27.4
79301;SHT31;68755;51.984;5.646;2023-06-10T13:05:07;31.5;27.0
79301;SHT31;68755;51.984;5.646;2023-06-10T13:07:37;31.5;27.4
79301;SHT31;68755;51.984;5.646;2023-06-10T13:10:07;31.5;26.5
79301;SHT31;68755;51.984;5.646;2023-06-10T13:12:37;31.5;26.1
79301;SHT31;68755;51.984;5.646;2023-06-10T13:15:08;31.5;26.7
79301;SHT31;68755;51.984;5.646;2023-06-10T13:17:38;31.5;27.1
79301;SHT31;68755;51.984;5.646;2023-06-10T13:20:11;31.5;26.5
79301;SHT31;68755;51.984;5.646;2023-06-10T13:22:41;31.5;26.6
79301;SHT31;68755;51.984;5.646;2023-06-10T13:25:11;31.6;25.8
79301;SHT31;68755;51.984;5.646;2023-06-10T13:27:43;31.6;27.4
79301;SHT31;68755;51.984;5.646;2023-06-10T13:30:13;31.6;27.4
79301;SHT31;68755;51.984;5.646;2023-06-10T13:32:43;31.6;27.1
79301;SHT31;68755;51.984;5.646;2023-06-10T13:35:13;31.6;27.0
79301;SHT31;68755;51.984;5.646;2023-06-10T13:37:43;31.6;27.1
79301;SHT31;68755;51.984;5.646;2023-06-10T13:40:15;31.7;26.0
79301;SHT31;68755;51.984;5.646;2023-06-10T13:42:47;31.7;25.9
79301;SHT31;68755;51.984;5.646;2023-06-10T13:45:20;31.7;26.8
79301;SHT31;68755;51.984;5.646;2023-06-10T13:47:50;31.7;26.6
79301;SHT31;68755;51.984;5.646;2023-06-10T13:50:20;31.7;26.5
79301;SHT31;68755;51.984;5.646;2023-06-10T13:52:50;31.7;26.7
79301;SHT31;68755;51.984;5.646;2023-06-10T13:55:19;31.6;27.1
79301;SHT31;68755;51.984;5.646;2023-06-10T13:57:49;31.6;26.6
79301;SHT31;68755;51.984;5.646;2023-06-10T14:00:19;31.6;26.8
79301;SHT31;68755;51.984;5.646;2023-06-10T14:02:49;31.6;27.2
79301;SHT31;68755;51.984;5.646;2023-06-10T14:05:18;31.6;25.8
79301;SHT31;68755;51.984;5.646;2023-06-10T14:07:48;31.6;25.6
79301;SHT31;68755;51.984;5.646;2023-06-10T14:10:18;31.6;26.7
79301;SHT31;68755;51.984;5.646;2023-06-10T14:12:47;31.6;25.6
79301;SHT31;68755;51.984;5.646;2023-06-10T14:15:18;31.6;26.5
79301;SHT31;68755;51.984;5.646;2023-06-10T14:17:47;31.6;26.2
79301;SHT31;68755;51.984;5.646;2023-06-10T14:20:17;31.6;26.3
79301;SHT31;68755;51.984;5.646;2023-06-10T14:22:49;31.6;26.2
79301;SHT31;68755;51.984;5.646;2023-06-10T14:25:18;31.6;26.3
79301;SHT31;68755;51.984;5.646;2023-06-10T14:27:48;31.6;26.4
79301;SHT31;68755;51.984;5.646;2023-06-10T14:30:18;31.6;26.2
79301;SHT31;68755;51.984;5.646;2023-06-10T14:32:47;31.6;26.0
79301;SHT31;68755;51.984;5.646;2023-06-10T14:35:17;31.6;26.3
79301;SHT31;68755;51.984;5.646;2023-06-10T14:37:48;31.6;26.6
79301;SHT31;68755;51.984;5.646;2023-06-10T14:40:18;31.7;26.3
79301;SHT31;68755;51.984;5.646;2023-06-10T14:42:49;31.7;25.4
79301;SHT31;68755;51.984;5.646;2023-06-10T14:45:18;31.7;24.1
79301;SHT31;68755;51.984;5.646;2023-06-10T14:47:48;31.6;24.7
79301;SHT31;68755;51.984;5.646;2023-06-10T14:50:18;31.6;25.4
79301;SHT31;68755;51.984;5.646;2023-06-10T14:52:48;31.6;26.1
79301;SHT31;68755;51.984;5.646;2023-06-10T14:55:18;31.6;26.5
79301;SHT31;68755;51.984;5.646;2023-06-10T14:57:47;31.6;25.9
79301;SHT31;68755;51.984;5.646;2023-06-10T15:00:18;31.6;26.1
79301;SHT31;68755;51.984;5.646;2023-06-10T15:02:51;31.6;25.5
79301;SHT31;68755;51.984;5.646;2023-06-10T15:05:21;31.6;25.6
79301;SHT31;68755;51.984;5.646;2023-06-10T15:07:53;31.6;26.2
79301;SHT31;68755;51.984;5.646;2023-06-10T15:10:23;31.6;25.0
79301;SHT31;68755;51.984;5.646;2023-06-10T15:12:53;31.6;25.8
79301;SHT31;68755;51.984;5.646;2023-06-10T15:15:26;31.6;25.9
79301;SHT31;68755;51.984;5.646;2023-06-10T15:17:57;31.6;26.0
79301;SHT31;68755;51.984;5.646;2023-06-10T15:20:27;31.6;26.0
79301;SHT31;68755;51.984;5.646;2023-06-10T15:22:56;31.5;26.6
79301;SHT31;68755;51.984;5.646;2023-06-10T15:25:27;31.5;26.7
79301;SHT31;68755;51.984;5.646;2023-06-10T15:27:57;31.5;26.6
79301;SHT31;68755;51.984;5.646;2023-06-10T15:30:27;31.5;26.8
79301;SHT31;68755;51.984;5.646;2023-06-10T15:32:57;31.5;26.2
79301;SHT31;68755;51.984;5.646;2023-06-10T15:35:26;31.5;26.2
79301;SHT31;68755;51.984;5.646;2023-06-10T15:37:56;31.5;26.4
79301;SHT31;68755;51.984;5.646;2023-06-10T15:40:26;31.4;26.7
79301;SHT31;68755;51.984;5.646;2023-06-10T15:42:56;31.4;26.2
79301;SHT31;68755;51.984;5.646;2023-06-10T15:45:26;31.4;27.0
79301;SHT31;68755;51.984;5.646;2023-06-10T15:47:55;31.4;27.1
79301;SHT31;68755;51.984;5.646;2023-06-10T15:50:25;31.4;27.4
79301;SHT31;68755;51.984;5.646;2023-06-10T15:52:55;31.4;27.4
79301;SHT31;68755;51.984;5.646;2023-06-10T15:55:25;31.3;27.5
79301;SHT31;68755;51.984;5.646;2023-06-10T15:57:56;31.3;27.5
79301;SHT31;68755;51.984;5.646;2023-06-10T16:00:27;31.3;26.9
79301;SHT31;68755;51.984;5.646;2023-06-10T16:02:57;31.3;26.7
79301;SHT31;68755;51.984;5.646;2023-06-10T16:05:27;31.3;27.5
79301;SHT31;68755;51.984;5.646;2023-06-10T16:07:57;31.3;27.5
79301;SHT31;68755;51.984;5.646;2023-06-10T16:10:27;31.2;27.0
79301;SHT31;68755;51.984;5.646;2023-06-10T16:12:57;31.2;27.6
79301;SHT31;68755;51.984;5.646;2023-06-10T16:15:26;31.2;27.6
79301;SHT31;68755;51.984;5.646;2023-06-10T16:17:56;31.2;27.7
79301;SHT31;68755;51.984;5.646;2023-06-10T16:20:28;31.1;27.5
79301;SHT31;68755;51.984;5.646;2023-06-10T16:22:57;31.1;27.8
79301;SHT31;68755;51.984;5.646;2023-06-10T16:25:27;31.1;27.8
79301;SHT31;68755;51.984;5.646;2023-06-10T16:27:57;31.1;28.0